Time;durP1;ratioP1;P1;durP2;ratioP2;P2;SDS_P1;SDS_P2;PMS_P1;PMS_P2;Temp;Humidity;BMP_temperature;BMP_pressure;BME280_temperature;BME280_humidity;BME280_pressure;Samples;Min_cycle;Max_cycle;Signal;HPM_P1;HPM_P2
2022/05/19 00:01:01;;;;;;;5.47;4.93;;;18.30;99.90;;;;;;5044995;28;20829;-84
2022/05/19 00:03:46;;;;;;;6.40;5.80;;;18.40;99.90;;;;;;5044863;28;20374;-84
2022/05/19 00:06:30;;;;;;;7.90;5.80;;;18.30;99.90;;;;;;5029986;28;20515;-83
2022/05/19 00:09:15;;;;;;;8.17;6.30;;;18.10;99.90;;;;;;5045114;28;20739;-84
2022/05/19 00:12:04;;;;;;;11.73;5.73;;;18.10;99.90;;;;;;5043752;28;20407;-84
2022/05/19 00:14:48;;;;;;;6.20;5.60;;;18.10;99.90;;;;;;5044741;28;20382;-84
2022/05/19 00:17:33;;;;;;;6.30;5.70;;;18.10;99.90;;;;;;5045093;28;20425;-84
2022/05/19 00:20:18;;;;;;;6.33;5.70;;;18.00;99.90;;;;;;5044901;28;20390;-83
2022/05/19 00:23:03;;;;;;;5.53;4.90;;;18.00;99.90;;;;;;5015747;28;20411;-83
2022/05/19 00:25:47;;;;;;;5.70;5.10;;;18.00;99.90;;;;;;5029940;28;20465;-83
2022/05/19 00:28:32;;;;;;;8.40;6.30;;;18.00;99.90;;;;;;5044613;28;20398;-83
2022/05/19 00:31:17;;;;;;;6.23;5.50;;;17.90;99.90;;;;;;5044676;28;20451;-84
2022/05/19 00:34:03;;;;;;;5.60;5.03;;;18.00;99.90;;;;;;5030009;28;20386;-83
2022/05/19 00:36:48;;;;;;;5.47;5.00;;;17.90;99.90;;;;;;5044298;28;20391;-83
2022/05/19 00:39:35;;;;;;;6.17;5.57;;;17.80;99.90;;;;;;5044422;28;20510;-85
2022/05/19 00:45:21;;;;;;;4.83;4.43;;;17.70;99.90;;;;;;5030709;28;20496;-83
2022/05/19 00:48:19;;;;;;;4.17;3.87;;;17.70;99.90;;;;;;5029480;28;20399;-83
2022/05/19 00:51:06;;;;;;;5.40;4.90;;;17.70;99.90;;;;;;5045536;28;20575;-83
2022/05/19 00:53:54;;;;;;;6.53;5.27;;;17.80;99.90;;;;;;5051460;28;20488;-83
2022/05/19 00:56:47;;;;;;;5.50;5.00;;;17.90;99.90;;;;;;5058337;28;20438;-81
2022/05/19 00:59:40;;;;;;;6.33;4.43;;;18.00;99.90;;;;;;5058898;28;20411;-83
2022/05/19 01:02:30;;;;;;;6.90;5.60;;;18.00;99.90;;;;;;5058273;28;20398;-84
2022/05/19 01:05:31;;;;;;;6.63;4.97;;;18.10;99.90;;;;;;5048687;28;20582;-84
2022/05/19 01:08:37;;;;;;;4.67;4.27;;;18.20;99.90;;;;;;5049616;28;20387;-84
2022/05/19 01:11:22;;;;;;;5.10;4.60;;;18.30;99.90;;;;;;5043814;28;20403;-84
2022/05/19 01:14:08;;;;;;;6.27;5.30;;;18.30;99.90;;;;;;5043167;28;20382;-84
2022/05/19 01:16:53;;;;;;;7.23;5.17;;;18.20;99.90;;;;;;5014716;28;20398;-84
2022/05/19 01:19:44;;;;;;;5.07;4.57;;;18.10;99.90;;;;;;5043596;28;20394;-83
2022/05/19 01:22:42;;;;;;;10.23;4.83;;;18.10;99.90;;;;;;5043212;28;20383;-84
2022/05/19 01:25:46;;;;;;;4.20;3.90;;;17.90;99.90;;;;;;5043079;28;20441;-83
2022/05/19 01:28:30;;;;;;;4.83;4.50;;;17.90;99.90;;;;;;5043660;28;20374;-84
2022/05/19 01:31:28;;;;;;;4.87;4.40;;;17.80;99.90;;;;;;5028388;28;20406;-84
2022/05/19 01:34:13;;;;;;;13.73;4.97;;;17.80;99.90;;;;;;5043637;28;20746;-84
2022/05/19 01:36:59;;;;;;;5.27;4.70;;;17.80;99.90;;;;;;5043023;28;20398;-83
2022/05/19 01:39:47;;;;;;;5.50;4.60;;;17.60;99.90;;;;;;5042394;28;20394;-84
2022/05/19 01:43:08;;;;;;;4.80;4.30;;;17.60;99.90;;;;;;5042433;28;20395;-84
2022/05/19 01:46:27;;;;;;;6.20;5.60;;;17.50;99.90;;;;;;5031740;28;20454;-84
2022/05/19 01:49:21;;;;;;;6.70;6.00;;;17.50;99.90;;;;;;5043783;28;20438;-84
2022/05/19 01:52:24;;;;;;;6.83;4.83;;;17.40;99.90;;;;;;5031152;28;20379;-84
2022/05/19 01:55:16;;;;;;;5.30;4.80;;;17.30;99.90;;;;;;5045832;28;20426;-83
2022/05/19 01:58:11;;;;;;;4.43;4.10;;;17.30;99.90;;;;;;5047037;28;20510;-83
2022/05/19 02:00:59;;;;;;;4.40;3.93;;;17.20;99.90;;;;;;5044572;28;20423;-84
2022/05/19 02:04:00;;;;;;;6.90;4.97;;;17.30;99.90;;;;;;5047506;28;20398;-83
2022/05/19 02:06:50;;;;;;;5.00;4.53;;;17.20;99.90;;;;;;5055949;28;20462;-83
2022/05/19 02:09:40;;;;;;;7.30;4.83;;;17.20;99.90;;;;;;5045843;28;20410;-84
2022/05/19 02:12:27;;;;;;;4.73;4.33;;;17.20;99.90;;;;;;5043322;28;20418;-84
2022/05/19 02:15:15;;;;;;;5.37;4.87;;;17.10;99.90;;;;;;5042780;28;20430;-84
2022/05/19 02:18:00;;;;;;;5.40;4.67;;;17.10;99.90;;;;;;5028541;28;20387;-84
2022/05/19 02:20:47;;;;;;;4.60;4.20;;;17.10;99.90;;;;;;5042690;28;20399;-83
2022/05/19 02:23:34;;;;;;;5.27;4.77;;;17.00;99.90;;;;;;5027574;28;20395;-84
2022/05/19 02:26:19;;;;;;;5.13;4.70;;;16.90;99.90;;;;;;5044299;28;20442;-84
2022/05/19 02:29:09;;;;;;;5.33;4.80;;;16.50;99.90;;;;;;5043340;28;20387;-84
2022/05/19 02:31:54;;;;;;;6.03;5.53;;;16.70;99.90;;;;;;5043699;28;20391;-83
2022/05/19 02:34:39;;;;;;;6.10;4.30;;;16.60;99.90;;;;;;5044089;28;20441;-84
2022/05/19 02:37:24;;;;;;;6.20;4.43;;;16.60;99.90;;;;;;5043112;28;20455;-83
2022/05/19 02:40:12;;;;;;;4.40;4.00;;;16.50;99.90;;;;;;5044363;28;20418;-83
2022/05/19 02:42:57;;;;;;;8.10;4.33;;;16.50;99.90;;;;;;5050396;28;20402;-82
2022/05/19 02:45:43;;;;;;;5.30;4.80;;;16.30;99.90;;;;;;5057761;28;20453;-82
2022/05/19 02:48:29;;;;;;;5.83;4.97;;;16.20;99.90;;;;;;5057630;28;20456;-83
2022/05/19 02:51:15;;;;;;;4.90;4.50;;;16.20;99.90;;;;;;5057378;28;20402;-84
2022/05/19 02:53:59;;;;;;;5.70;5.10;;;16.30;99.90;;;;;;5059214;28;20478;-82
2022/05/19 02:56:44;;;;;;;5.30;4.90;;;16.20;99.90;;;;;;5061613;28;20426;-82
2022/05/19 02:59:30;;;;;;;5.47;4.97;;;16.20;99.90;;;;;;5061758;28;20390;-82
2022/05/19 03:02:15;;;;;;;5.40;4.90;;;16.30;99.90;;;;;;5047471;28;20399;-83
2022/05/19 03:05:00;;;;;;;4.63;4.03;;;16.30;99.90;;;;;;5061231;28;20458;-83
2022/05/19 03:07:46;;;;;;;6.70;5.10;;;16.30;99.90;;;;;;5061968;28;20409;-83
2022/05/19 03:10:31;;;;;;;4.67;4.37;;;16.30;99.90;;;;;;5061641;28;20535;-83
2022/05/19 03:13:18;;;;;;;6.13;4.63;;;16.30;99.90;;;;;;5061451;28;20387;-82
2022/05/19 03:16:08;;;;;;;5.13;4.63;;;16.30;99.90;;;;;;5061499;28;20464;-83
2022/05/19 03:18:53;;;;;;;5.97;5.40;;;16.30;99.90;;;;;;5052774;28;20485;-83
2022/05/19 03:21:38;;;;;;;5.27;4.77;;;16.20;99.90;;;;;;5046804;28;20387;-83
2022/05/19 03:24:23;;;;;;;6.87;5.80;;;16.10;99.90;;;;;;5045974;28;20449;-84
2022/05/19 03:27:08;;;;;;;5.80;5.30;;;16.00;99.90;;;;;;5046089;28;20406;-84
2022/05/19 03:29:53;;;;;;;5.07;4.67;;;16.00;99.90;;;;;;5045018;28;20820;-83
2022/05/19 03:32:41;;;;;;;5.93;5.43;;;15.90;99.90;;;;;;5046461;28;20376;-83
2022/05/19 03:35:29;;;;;;;5.60;5.10;;;15.90;99.90;;;;;;5046036;28;20387;-84
2022/05/19 03:38:13;;;;;;;6.13;4.77;;;15.90;99.90;;;;;;5045759;28;20382;-83
2022/05/19 03:40:58;;;;;;;6.07;4.60;;;15.80;99.90;;;;;;5030150;28;20741;-83
2022/05/19 03:43:45;;;;;;;6.80;5.27;;;15.70;99.90;;;;;;5047637;28;20379;-83
2022/05/19 03:46:30;;;;;;;8.43;4.67;;;15.70;99.90;;;;;;5040996;28;20518;-83
2022/05/19 03:49:15;;;;;;;5.83;5.23;;;15.70;99.90;;;;;;5050831;28;20390;-83
2022/05/19 03:52:01;;;;;;;5.77;5.03;;;15.60;99.90;;;;;;5045028;28;20418;-83
2022/05/19 03:54:47;;;;;;;9.00;5.20;;;15.60;99.90;;;;;;5045406;28;20397;-84
2022/05/19 03:57:32;;;;;;;5.67;5.17;;;15.70;99.90;;;;;;5045073;28;20426;-84
2022/05/19 04:00:18;;;;;;;9.23;5.60;;;15.70;99.90;;;;;;5058637;28;20406;-83
2022/05/19 04:03:03;;;;;;;6.60;5.90;;;15.60;99.90;;;;;;5059327;28;20406;-81
2022/05/19 04:05:49;;;;;;;6.07;5.47;;;15.40;99.90;;;;;;5054817;28;20533;-83
2022/05/19 04:08:34;;;;;;;7.30;5.90;;;15.60;99.90;;;;;;5051946;28;20430;-83
2022/05/19 04:11:19;;;;;;;8.83;7.87;;;15.40;99.90;;;;;;5059897;28;20418;-83
2022/05/19 04:14:04;;;;;;;5.17;4.73;;;15.30;99.90;;;;;;5059921;28;20470;-83
2022/05/19 04:16:52;;;;;;;7.90;5.30;;;15.40;99.90;;;;;;5031577;28;20451;-81
2022/05/19 04:19:37;;;;;;;6.33;5.50;;;15.40;99.90;;;;;;5060244;28;20461;-81
2022/05/19 04:22:22;;;;;;;6.07;5.23;;;15.30;99.90;;;;;;5038573;28;20514;-83
2022/05/19 04:25:08;;;;;;;5.80;4.43;;;15.30;99.90;;;;;;5050706;28;20445;-83
2022/05/19 04:27:52;;;;;;;6.20;5.60;;;15.30;99.90;;;;;;5031221;28;20452;-83
2022/05/19 04:30:37;;;;;;;10.03;5.20;;;15.40;99.90;;;;;;5046041;28;20398;-83
2022/05/19 04:33:22;;;;;;;5.53;4.30;;;15.50;99.90;;;;;;5044199;28;20391;-83
2022/05/19 04:36:09;;;;;;;7.00;5.37;;;15.50;99.90;;;;;;5044396;28;20395;-83
2022/05/19 04:38:54;;;;;;;4.77;4.43;;;15.50;99.90;;;;;;5028636;28;20455;-83
2022/05/19 04:41:39;;;;;;;6.20;4.80;;;15.60;99.90;;;;;;5043839;28;20414;-83
2022/05/19 04:44:24;;;;;;;9.47;6.00;;;15.40;99.90;;;;;;5043665;28;20526;-83
2022/05/19 04:47:08;;;;;;;6.33;5.50;;;15.70;99.90;;;;;;5045419;28;20411;-83
2022/05/19 04:49:53;;;;;;;6.27;5.27;;;15.80;99.90;;;;;;5046944;28;20391;-83
2022/05/19 04:52:41;;;;;;;7.40;5.20;;;15.90;99.90;;;;;;5059127;28;20497;-83
2022/05/19 04:55:27;;;;;;;8.93;5.87;;;16.00;99.90;;;;;;5061805;28;20445;-84
2022/05/19 04:58:11;;;;;;;5.63;5.13;;;15.80;99.90;;;;;;5078204;28;20394;-83
2022/05/19 05:00:56;;;;;;;7.03;6.43;;;15.90;99.90;;;;;;5049768;28;20497;-83
2022/05/19 05:03:42;;;;;;;6.17;5.20;;;16.00;99.90;;;;;;5078303;28;20386;-82
2022/05/19 05:06:27;;;;;;;5.37;4.93;;;16.40;99.90;;;;;;5077844;28;20445;-83
2022/05/19 05:09:12;;;;;;;6.23;5.30;;;16.60;99.90;;;;;;5077934;28;20386;-84
2022/05/19 05:11:56;;;;;;;7.40;5.20;;;16.60;99.90;;;;;;5073004;28;20446;-80
2022/05/19 05:14:41;;;;;;;6.73;4.70;;;16.70;99.90;;;;;;5072793;28;20445;-83
2022/05/19 05:17:25;;;;;;;7.30;4.97;;;16.90;99.90;;;;;;5062248;28;20434;-83
2022/05/19 05:20:12;;;;;;;6.47;4.70;;;17.00;99.90;;;;;;5070421;28;20424;-83
2022/05/19 05:22:57;;;;;;;11.00;5.40;;;17.00;99.90;;;;;;5053996;28;20422;-83
2022/05/19 05:25:42;;;;;;;12.23;6.03;;;16.90;99.90;;;;;;5063153;28;20472;-83
2022/05/19 05:28:26;;;;;;;7.70;5.20;;;17.00;99.90;;;;;;5069172;28;20453;-82
2022/05/19 05:31:11;;;;;;;7.13;5.10;;;17.20;99.90;;;;;;5062233;28;20494;-84
2022/05/19 05:33:56;;;;;;;8.40;5.53;;;17.40;99.90;;;;;;5049311;28;20720;-84
2022/05/19 05:36:40;;;;;;;5.93;5.00;;;17.40;99.90;;;;;;5067964;28;20425;-84
2022/05/19 05:39:27;;;;;;;11.93;5.53;;;17.50;99.90;;;;;;5055594;28;20434;-84
2022/05/19 05:42:11;;;;;;;8.90;5.17;;;17.50;99.90;;;;;;5062170;28;20413;-83
2022/05/19 05:44:56;;;;;;;5.47;5.07;;;17.60;99.90;;;;;;5064097;28;20661;-84
2022/05/19 05:47:43;;;;;;;6.27;4.43;;;17.70;99.90;;;;;;5024382;28;20415;-83
2022/05/19 05:50:27;;;;;;;5.43;4.57;;;17.70;99.90;;;;;;5049813;28;20383;-84
2022/05/19 05:53:12;;;;;;;4.83;4.43;;;17.60;99.90;;;;;;5057781;28;20430;-83
2022/05/19 05:55:56;;;;;;;7.10;4.90;;;17.40;99.90;;;;;;5052491;28;20541;-84
2022/05/19 05:58:41;;;;;;;7.27;4.40;;;17.60;99.90;;;;;;5052614;28;20398;-84
2022/05/19 06:01:26;;;;;;;31.10;5.67;;;17.70;99.90;;;;;;5053519;28;20413;-84
2022/05/19 06:04:11;;;;;;;5.87;4.80;;;18.00;99.90;;;;;;5035656;28;20453;-83
2022/05/19 06:06:56;;;;;;;4.70;4.10;;;17.80;99.90;;;;;;5062461;28;20548;-83
2022/05/19 06:09:41;;;;;;;6.07;3.80;;;17.80;99.90;;;;;;5061635;28;20768;-84
2022/05/19 06:12:26;;;;;;;7.50;4.23;;;17.90;99.90;;;;;;5046882;28;20425;-83
2022/05/19 06:15:13;;;;;;;5.20;4.70;;;18.20;99.90;;;;;;5046288;28;20437;-83
2022/05/19 06:17:58;;;;;;;5.17;4.57;;;18.30;99.90;;;;;;5034166;28;20441;-85
2022/05/19 06:20:42;;;;;;;5.03;3.90;;;18.50;99.90;;;;;;5047343;28;20507;-84
2022/05/19 06:23:27;;;;;;;6.10;3.80;;;18.40;99.90;;;;;;5064613;28;20796;-84
2022/05/19 06:26:13;;;;;;;5.20;4.10;;;18.60;99.90;;;;;;5039978;28;20684;-87
2022/05/19 06:28:57;;;;;;;6.90;3.90;;;18.50;99.90;;;;;;5029405;28;20371;-83
2022/05/19 06:31:42;;;;;;;4.63;3.67;;;18.60;99.90;;;;;;5048443;28;20511;-85
2022/05/19 06:34:27;;;;;;;6.93;4.20;;;18.80;99.90;;;;;;5060977;28;20437;-84
2022/05/19 06:37:11;;;;;;;3.87;3.57;;;18.90;99.90;;;;;;5064773;28;20483;-84
2022/05/19 06:40:17;;;;;;;5.00;3.57;;;18.90;99.90;;;;;;5035090;28;20412;-84
2022/05/19 06:43:09;;;;;;;13.00;3.30;;;19.10;99.90;;;;;;5035075;28;20426;-85
2022/05/19 06:45:53;;;;;;;6.80;3.60;;;19.20;99.90;;;;;;5021640;28;20899;-84
2022/05/19 06:48:39;;;;;;;7.57;3.93;;;19.20;99.90;;;;;;5030623;28;20986;-84
2022/05/19 06:51:23;;;;;;;3.23;3.03;;;19.20;99.90;;;;;;5036252;28;20469;-86
2022/05/19 06:54:08;;;;;;;4.33;3.13;;;19.30;99.90;;;;;;5017989;28;20422;-85
2022/05/19 06:56:53;;;;;;;7.60;3.30;;;19.30;99.90;;;;;;5032081;28;20959;-82
2022/05/19 06:59:37;;;;;;;10.03;4.27;;;19.30;99.90;;;;;;5019208;28;20430;-84
2022/05/19 07:02:24;;;;;;;6.80;3.77;;;19.40;99.90;;;;;;4990969;28;20502;-85
2022/05/19 07:05:09;;;;;;;8.13;3.50;;;19.40;99.90;;;;;;5001815;28;21131;-84
2022/05/19 07:07:53;;;;;;;4.40;3.10;;;19.60;99.90;;;;;;5033475;28;20511;-83
2022/05/19 07:10:38;;;;;;;5.20;3.40;;;19.80;99.90;;;;;;5028153;28;20438;-85
2022/05/19 07:13:22;;;;;;;3.97;2.90;;;19.60;99.90;;;;;;5009577;28;20926;-83
2022/05/19 07:16:07;;;;;;;3.80;3.07;;;19.50;99.90;;;;;;5016230;28;20497;-84
2022/05/19 07:20:43;;;;;;;4.47;3.40;;;19.60;99.90;;;;;;5032032;28;20422;-84
2022/05/19 07:21:57;;;;;;;5.60;2.80;;;19.70;99.90;;;;;;5033393;28;21144;-85
2022/05/19 07:24:41;;;;;;;6.30;3.00;;;19.80;99.90;;;;;;5042727;28;20461;-85
2022/05/19 07:27:25;;;;;;;4.20;2.90;;;19.80;99.90;;;;;;5046151;28;20431;-84
2022/05/19 07:30:11;;;;;;;3.60;3.30;;;20.00;99.90;;;;;;5029577;28;20430;-83
2022/05/19 07:32:56;;;;;;;8.37;2.90;;;19.90;99.90;;;;;;5035537;28;20463;-83
2022/05/19 07:35:46;;;;;;;3.43;3.13;;;20.10;99.90;;;;;;5028682;28;20450;-84
2022/05/19 07:38:30;;;;;;;3.07;2.80;;;20.10;99.90;;;;;;5033073;28;20949;-84
2022/05/19 07:41:15;;;;;;;4.63;3.60;;;20.20;99.90;;;;;;5035798;28;20467;-84
2022/05/19 07:44:00;;;;;;;6.00;2.97;;;20.30;99.90;;;;;;5026742;28;20572;-83
2022/05/19 07:46:45;;;;;;;4.67;2.70;;;20.50;99.90;;;;;;5064590;28;20571;-84
2022/05/19 07:49:29;;;;;;;4.57;2.90;;;20.60;99.90;;;;;;5055381;28;20924;-85
2022/05/19 07:52:14;;;;;;;3.20;2.90;;;20.80;99.90;;;;;;5054229;28;20433;-84
2022/05/19 07:55:00;;;;;;;3.33;2.43;;;20.80;99.90;;;;;;5039966;28;20495;-85
2022/05/19 07:57:47;;;;;;;6.03;3.40;;;20.90;99.90;;;;;;5048689;28;21036;-84
2022/05/19 08:00:32;;;;;;;2.97;2.67;;;20.90;99.90;;;;;;5034565;28;20942;-85
2022/05/19 08:03:16;;;;;;;3.00;2.60;;;21.00;99.90;;;;;;5045643;28;20473;-84
2022/05/19 08:06:01;;;;;;;3.30;3.00;;;21.10;99.90;;;;;;5051879;28;20480;-84
2022/05/19 08:08:46;;;;;;;5.40;2.67;;;21.00;99.90;;;;;;5055913;28;20863;-84
2022/05/19 08:11:33;;;;;;;3.27;3.07;;;21.20;99.90;;;;;;5028143;28;20472;-85
2022/05/19 08:17:20;;;;;;;4.00;3.10;;;21.20;99.90;;;;;;5057448;28;20421;-84
2022/05/19 08:20:08;;;;;;;3.53;2.37;;;21.20;99.90;;;;;;5044629;28;20425;-84
2022/05/19 08:22:53;;;;;;;8.23;3.20;;;21.30;99.90;;;;;;5056831;28;20572;-85
2022/05/19 08:25:39;;;;;;;3.10;2.80;;;21.50;99.90;;;;;;5043270;28;20536;-83
2022/05/19 08:28:31;;;;;;;3.93;2.73;;;21.40;99.90;;;;;;5043328;28;21089;-83
2022/05/19 08:31:19;;;;;;;3.43;2.83;;;21.60;99.90;;;;;;5042078;28;20457;-83
2022/05/19 08:34:04;;;;;;;4.07;2.40;;;21.60;99.90;;;;;;5022663;28;20698;-83
2022/05/19 08:36:50;;;;;;;4.20;3.23;;;21.50;99.90;;;;;;5035145;28;20991;-83
2022/05/19 08:39:35;;;;;;;2.90;2.60;;;21.70;99.90;;;;;;5039049;28;20448;-82
2022/05/19 08:42:20;;;;;;;7.90;3.03;;;21.70;99.90;;;;;;5053527;28;20471;-83
2022/05/19 08:45:22;;;;;;;6.07;3.13;;;21.90;99.90;;;;;;5036677;28;20519;-84
2022/05/19 08:48:12;;;;;;;3.20;2.90;;;22.00;99.90;;;;;;5040663;28;20983;-83
2022/05/19 08:51:00;;;;;;;4.77;2.50;;;22.10;99.90;;;;;;5043984;28;20449;-85
2022/05/19 08:53:45;;;;;;;4.50;3.43;;;22.10;99.90;;;;;;5024493;28;20476;-84
2022/05/19 08:56:39;;;;;;;5.17;2.90;;;22.30;99.90;;;;;;5036893;28;20473;-83
2022/05/19 08:59:46;;;;;;;2.33;2.13;;;22.40;99.90;;;;;;5023936;28;20526;-84
2022/05/19 09:02:40;;;;;;;6.60;3.40;;;22.50;99.90;;;;;;5014353;28;20450;-84
2022/05/19 09:05:56;;;;;;;4.30;2.83;;;22.40;99.90;;;;;;5020334;28;20484;-84
2022/05/19 09:08:59;;;;;;;5.20;2.30;;;22.40;99.90;;;;;;5051804;28;20532;-84
2022/05/19 09:12:00;;;;;;;3.33;2.60;;;22.70;99.90;;;;;;5036710;28;20600;-84
2022/05/19 09:14:45;;;;;;;5.23;2.80;;;22.70;99.90;;;;;;5041558;28;20433;-84
2022/05/19 09:17:35;;;;;;;3.37;2.83;;;22.80;99.90;;;;;;5053653;28;20508;-84
2022/05/19 09:20:29;;;;;;;2.90;2.60;;;22.90;99.90;;;;;;5035573;28;20548;-84
2022/05/19 09:23:14;;;;;;;3.00;2.80;;;22.80;99.90;;;;;;5043856;28;20456;-83
2022/05/19 09:26:25;;;;;;;4.07;3.77;;;22.80;99.90;;;;;;5027542;28;20489;-85
2022/05/19 09:29:15;;;;;;;3.37;3.07;;;22.70;99.90;;;;;;5044756;28;20921;-84
2022/05/19 09:32:29;;;;;;;3.53;2.83;;;23.00;99.90;;;;;;5061328;28;20445;-84
2022/05/19 09:35:30;;;;;;;3.40;2.80;;;23.00;99.90;;;;;;5039158;28;20430;-83
2022/05/19 09:38:32;;;;;;;4.00;2.90;;;23.10;99.90;;;;;;5055127;28;20437;-83
2022/05/19 09:41:32;;;;;;;5.33;2.73;;;23.10;99.90;;;;;;5026998;28;20466;-84
2022/05/19 09:44:25;;;;;;;3.30;3.00;;;23.40;99.90;;;;;;5039815;28;20442;-84
2022/05/19 09:47:25;;;;;;;3.13;2.60;;;23.40;99.90;;;;;;5052114;28;20538;-84
2022/05/19 09:50:18;;;;;;;8.27;2.70;;;23.60;99.90;;;;;;5026924;28;21137;-84
2022/05/19 09:53:07;;;;;;;5.83;3.50;;;23.80;99.90;;;;;;5039145;28;20951;-86
2022/05/19 09:56:00;;;;;;;3.20;2.83;;;23.90;99.90;;;;;;5029717;28;20461;-85
2022/05/19 09:58:48;;;;;;;3.20;2.77;;;24.20;99.90;;;;;;5018628;28;20491;-86
2022/05/19 10:01:40;;;;;;;4.23;3.07;;;24.20;99.90;;;;;;5041016;28;20456;-84
2022/05/19 10:04:32;;;;;;;4.73;3.10;;;24.20;99.90;;;;;;5011568;28;20487;-84
2022/05/19 10:07:23;;;;;;;3.10;2.90;;;24.30;99.90;;;;;;5009568;28;20964;-85
2022/05/19 10:10:30;;;;;;;3.53;3.23;;;24.30;99.90;;;;;;4995103;28;20460;-86
2022/05/19 10:13:17;;;;;;;4.37;3.33;;;24.30;99.90;;;;;;5008357;28;21168;-84
2022/05/19 10:16:24;;;;;;;3.63;3.33;;;24.40;99.90;;;;;;4996846;28;20558;-84
2022/05/19 10:19:29;;;;;;;3.00;2.80;;;24.40;99.90;;;;;;4986793;28;20942;-84
2022/05/19 10:22:37;;;;;;;2.73;2.53;;;24.60;99.90;;;;;;4992407;28;20811;-84
2022/05/19 10:25:40;;;;;;;3.43;3.03;;;24.70;99.90;;;;;;5008453;28;20495;-84
2022/05/19 10:32:14;;;;;;;4.27;3.90;;;25.30;99.20;;;;;;5015799;28;20439;-83
2022/05/19 10:35:17;;;;;;;4.10;2.90;;;25.50;98.00;;;;;;4999054;28;20474;-83
2022/05/19 10:38:29;;;;;;;3.50;3.20;;;25.60;98.10;;;;;;5013699;28;20459;-83
2022/05/19 10:41:35;;;;;;;4.00;2.80;;;25.50;96.70;;;;;;5022664;28;20450;-83
2022/05/19 10:44:45;;;;;;;4.57;3.77;;;25.40;96.20;;;;;;5024986;28;20448;-83
2022/05/19 10:47:47;;;;;;;3.30;2.73;;;25.60;97.20;;;;;;5034655;28;20896;-82
2022/05/19 10:50:36;;;;;;;3.03;2.63;;;25.50;96.80;;;;;;5036266;28;20466;-84
2022/05/19 10:53:35;;;;;;;3.27;3.00;;;25.40;95.40;;;;;;5038499;28;20506;-84
2022/05/19 10:56:58;;;;;;;4.00;2.77;;;25.60;96.50;;;;;;5036061;28;20460;-83
2022/05/19 11:00:03;;;;;;;3.27;3.07;;;26.10;95.30;;;;;;5054115;28;20425;-82
2022/05/19 11:03:25;;;;;;;3.27;2.97;;;26.10;93.80;;;;;;5053378;28;20424;-80
2022/05/19 11:06:35;;;;;;;2.93;2.73;;;26.40;94.50;;;;;;5060758;28;20491;-84
2022/05/19 11:09:43;;;;;;;3.10;2.90;;;26.50;93.50;;;;;;5058647;28;20424;-85
2022/05/19 11:12:43;;;;;;;9.00;2.70;;;26.40;94.30;;;;;;5019293;28;20525;-84
2022/05/19 11:15:44;;;;;;;2.80;2.60;;;26.50;93.60;;;;;;5027641;28;20777;-84
2022/05/19 11:18:40;;;;;;;4.63;3.00;;;26.50;92.40;;;;;;5005954;28;20584;-85
2022/05/19 11:21:36;;;;;;;2.87;2.67;;;26.90;91.90;;;;;;5008200;28;20549;-85
2022/05/19 11:24:32;;;;;;;4.50;3.43;;;27.30;92.10;;;;;;5021545;28;20524;-87
2022/05/19 11:27:19;;;;;;;7.27;3.10;;;27.10;91.30;;;;;;5017048;28;20489;-84
2022/05/19 11:30:09;;;;;;;9.07;3.27;;;27.40;92.10;;;;;;5022045;28;20852;-84
2022/05/19 11:33:01;;;;;;;3.93;3.30;;;27.10;91.90;;;;;;5007842;28;20446;-84
2022/05/19 11:35:50;;;;;;;4.70;2.50;;;27.20;91.00;;;;;;5015412;28;20433;-85
2022/05/19 11:38:46;;;;;;;3.40;3.20;;;27.20;89.70;;;;;;5006355;28;20462;-85
2022/05/19 11:41:35;;;;;;;2.83;2.63;;;27.30;87.80;;;;;;5016399;28;20438;-85
2022/05/19 11:44:33;;;;;;;3.23;2.80;;;27.40;88.10;;;;;;5024336;28;20807;-85
2022/05/19 11:56:56;;;;;;;3.20;3.00;;;27.80;83.80;;;;;;5024448;28;20461;-84
2022/05/19 11:59:47;;;;;;;2.83;2.63;;;28.60;84.30;;;;;;5039263;28;20524;-82
2022/05/19 12:02:48;;;;;;;3.43;3.13;;;28.50;82.20;;;;;;5022172;28;20545;-82
2022/05/19 12:05:38;;;;;;;3.07;2.80;;;28.80;82.60;;;;;;5029736;28;20485;-82
2022/05/19 12:08:35;;;;;;;2.90;2.70;;;28.10;78.80;;;;;;5020836;28;20518;-80
2022/05/19 12:11:26;;;;;;;3.50;3.20;;;28.70;83.60;;;;;;5044463;28;20441;-84
2022/05/19 12:14:34;;;;;;;2.60;2.40;;;28.80;77.50;;;;;;5026345;28;20442;-83
2022/05/19 12:17:33;;;;;;;5.53;2.60;;;28.70;78.90;;;;;;5033815;28;20528;-82
2022/05/19 12:21:20;;;;;;;2.47;2.20;;;29.00;77.00;;;;;;5015482;28;20477;-80
2022/05/19 12:24:10;;;;;;;2.10;2.00;;;28.80;73.70;;;;;;5012815;28;20442;-82
2022/05/19 12:27:02;;;;;;;3.10;2.47;;;29.80;72.60;;;;;;5022301;28;20477;-82
2022/05/19 12:33:24;;;;;;;3.00;2.70;;;31.10;66.80;;;;;;5049471;28;20217;-83
2022/05/19 12:36:16;;;;;;;3.10;2.90;;;30.60;67.50;;;;;;5036027;28;20198;-82
2022/05/19 12:39:29;;;;;;;2.60;2.40;;;29.60;66.40;;;;;;5029860;28;20182;-85
2022/05/19 12:42:26;;;;;;;5.55;2.38;;;30.70;67.50;;;;;;5063403;28;20186;-84
2022/05/19 12:45:25;;;;;;;3.47;2.33;;;30.50;66.40;;;;;;5051438;28;20222;-84
2022/05/19 12:48:43;;;;;;;7.53;2.65;;;31.60;62.30;;;;;;5039653;28;20231;-84
2022/05/19 12:52:06;;;;;;;2.20;1.98;;;31.10;62.50;;;;;;5065170;28;20219;-83
2022/05/19 12:55:12;;;;;;;2.33;2.22;;;30.70;62.50;;;;;;5008323;28;20183;-85
2022/05/19 12:58:19;;;;;;;6.20;2.47;;;30.60;65.00;;;;;;5011534;28;20814;-83
2022/05/19 13:01:26;;;;;;;2.40;2.25;;;30.10;62.50;;;;;;5005014;28;20283;-82
2022/05/19 13:04:32;;;;;;;2.60;2.40;;;30.70;62.10;;;;;;4997140;28;20230;-85
2022/05/19 13:07:25;;;;;;;2.90;2.70;;;31.60;59.80;;;;;;4983291;28;20233;-83
2022/05/19 13:10:21;;;;;;;2.42;2.22;;;31.10;59.60;;;;;;5008630;28;20311;-84
2022/05/19 13:13:29;;;;;;;3.25;3.05;;;30.70;60.30;;;;;;5009964;28;20317;-82
2022/05/19 13:16:23;;;;;;;2.13;1.92;;;30.40;61.90;;;;;;5003187;28;20215;-84
2022/05/19 13:19:18;;;;;;;2.90;2.63;;;30.40;59.00;;;;;;5000985;28;20280;-86
2022/05/19 13:22:07;;;;;;;2.08;1.98;;;30.00;59.60;;;;;;5001639;28;20191;-87
2022/05/19 13:24:52;;;;;;;2.65;2.45;;;30.40;61.10;;;;;;5028675;28;20342;-84
2022/05/19 13:30:46;;;;;;;10.63;2.72;;;30.60;63.40;;;;;;5051659;28;20286;-85
2022/05/19 13:33:40;;;;;;;8.55;2.58;;;31.10;63.10;;;;;;5046275;28;20441;-85
2022/05/19 13:36:35;;;;;;;2.40;2.20;;;31.30;59.50;;;;;;5055989;28;20210;-85
2022/05/19 13:39:20;;;;;;;3.03;2.58;;;31.80;61.90;;;;;;5051593;28;20648;-82
2022/05/19 13:42:09;;;;;;;4.53;2.85;;;31.00;61.70;;;;;;5040547;28;20698;-83
2022/05/19 13:44:54;;;;;;;2.58;2.38;;;30.40;62.10;;;;;;5055696;28;20175;-83
2022/05/19 13:47:41;;;;;;;2.63;2.42;;;31.40;61.90;;;;;;5048090;28;20194;-86
2022/05/19 13:50:30;;;;;;;3.50;2.83;;;32.00;60.50;;;;;;5043983;28;20293;-85
2022/05/19 13:53:18;;;;;;;7.53;2.78;;;32.10;58.90;;;;;;5061591;28;20221;-85
2022/05/19 13:56:09;;;;;;;3.45;2.55;;;31.50;59.90;;;;;;5051180;28;20248;-82
2022/05/19 13:58:55;;;;;;;3.28;2.97;;;31.70;60.00;;;;;;5033070;28;20194;-82
2022/05/19 14:01:52;;;;;;;3.55;2.67;;;31.50;61.30;;;;;;5035895;28;20186;-83
2022/05/19 14:04:41;;;;;;;2.78;2.58;;;31.20;62.00;;;;;;5035758;28;20250;-83
2022/05/19 14:07:28;;;;;;;2.97;2.78;;;31.40;62.90;;;;;;5062642;28;20554;-84
2022/05/19 14:10:16;;;;;;;2.40;2.20;;;30.80;61.60;;;;;;5055470;28;20743;-82
2022/05/19 14:13:02;;;;;;;3.72;3.42;;;30.40;63.40;;;;;;5043844;28;20198;-84
2022/05/19 14:16:11;;;;;;;2.87;2.67;;;30.40;64.50;;;;;;5047444;28;20201;-85
2022/05/19 14:19:34;;;;;;;3.13;2.40;;;30.60;65.30;;;;;;5043480;28;20218;-85
2022/05/19 14:22:21;;;;;;;6.50;2.70;;;31.00;62.00;;;;;;5045245;28;20174;-83
2022/05/19 14:25:10;;;;;;;3.92;3.60;;;31.50;63.30;;;;;;5035926;28;20229;-84
2022/05/19 14:28:06;;;;;;;2.88;2.63;;;31.30;64.10;;;;;;5061711;28;20197;-85
2022/05/19 14:30:55;;;;;;;3.58;3.30;;;30.80;64.30;;;;;;5057813;28;20209;-84
2022/05/19 14:33:55;;;;;;;5.25;2.83;;;30.60;64.30;;;;;;5055179;28;20182;-85
2022/05/19 14:36:43;;;;;;;3.03;2.60;;;30.80;64.70;;;;;;5063482;28;20233;-84
2022/05/19 14:39:40;;;;;;;3.45;2.85;;;31.10;64.70;;;;;;5077685;28;20205;-84
2022/05/19 14:45:29;;;;;;;5.47;3.20;;;31.00;63.60;;;;;;5036851;28;20271;-84
2022/05/19 14:48:42;;;;;;;2.88;2.67;;;30.80;63.90;;;;;;5034711;28;20700;-83
2022/05/19 14:51:30;;;;;;;2.40;2.25;;;31.70;61.70;;;;;;5039328;28;20331;-83
2022/05/19 14:54:22;;;;;;;5.22;3.28;;;31.40;62.10;;;;;;5027299;28;20190;-82
2022/05/19 14:57:23;;;;;;;3.67;3.47;;;31.80;61.20;;;;;;5041893;28;20382;-82
2022/05/19 15:00:11;;;;;;;6.43;2.83;;;30.80;63.40;;;;;;5043280;28;20642;-82
2022/05/19 15:02:56;;;;;;;2.85;2.58;;;31.20;62.80;;;;;;5032422;28;20197;-82
2022/05/19 15:05:44;;;;;;;3.88;3.58;;;31.10;63.80;;;;;;5036378;28;20237;-83
2022/05/19 15:08:29;;;;;;;4.40;2.80;;;31.20;64.70;;;;;;5039683;28;20264;-81
2022/05/19 15:11:17;;;;;;;3.00;2.80;;;31.30;64.20;;;;;;5033068;28;20195;-82
2022/05/19 15:14:02;;;;;;;3.00;2.80;;;31.00;64.80;;;;;;5035250;28;20241;-82
2022/05/19 15:16:48;;;;;;;4.78;3.00;;;31.50;65.00;;;;;;5053626;28;20680;-82